Saint Peter, MN

12:18 PM CST on January 24, 2017 (GMT -0600)
North End of Town | | Change Station
Active Advisory: Winter Weather Advisory

Elev 761 ft 44.33 °N, 93.95 °W | Updated 14 seconds ago

Overcast
Overcast
32.4 °F
Feels Like 32 °F
N
2.0
Wind Variable Wind from ESE

Today
High -- | Low -- °F
--% Chance of Precip.
Yesterday
High -- | Low -- °F
Precip. -- in
Pressure 29.88 in
Visibility 7.0 miles
Clouds Overcast 1000 ft
Windchill 32 °F
Dew Point 28 °F
Humidity 86%
Rainfall 0.00 in
Snow Depth Not available.
7:41 AM 5:14 PM
Waning Crescent, 10% visible
METAR KMKT 241756Z AUTO 07008KT 7SM OVC010 M01/M03 A2983 RMK AO2 SLP116 T10061028 11006 21011 58016 FZRANO
Pressure 29.88 in
Visibility 7.0 miles
Clouds Overcast 1000 ft
Windchill 32 °F
Dew Point 28 °F
Humidity 86%
Rainfall 0.00 in
Snow Depth Not available.
7:41 AM 5:14 PM
Waning Crescent, 10% visible
METAR KMKT 241756Z AUTO 07008KT 7SM OVC010 M01/M03 A2983 RMK AO2 SLP116 T10061028 11006 21011 58016 FZRANO

Get Your Daily Forecast Email!

Thanks for signing up!

Be on the lookout for a verification email in your inbox.

You'll start receiving the daily forecast at 8 AM.

×

10-Day Weather Forecast

Almanac

Astronomy

Jan. 24, 2017 Rise Set
Actual Time
Civil Twilight
Nautical Twilight
Astronomical Twilight
Moon
Length of Visible Light
Length of Day
Tomorrow will be .
, % of the Moon is Illuminated

Today's Extremes

State Highs State Lows

Community

WunderPhotos

Upload Photos

1,962,540 photos uploaded!

WunderBlog® & News

Nearby

Air Quality

  Air Quality AQ Index Pollutant
Not available.

Snow Depth

Station Depth Elevation

Earthquake Activity

City Distance Mag. Time & Date
Minimum magnitude displayed is 2.5.

Coastal Water Temperatures

Place Temperature

Stations

Nearby Weather Stations

Station Location Temp. Windchill Dew Point Humidity Wind Precip. Elev Updated Type
                   

Watches & Warnings

Winter Weather Advisory
Issued: 10:37 AM CST Jan. 24, 2017 – National Weather Service

... Winter Weather Advisory remains in effect from 6 PM this
evening to 6 PM CST Wednesday...

* timing... light snow will move into the area late this
evening... with the best chance of accumulating snowfall after
midnight.

* Main impact... accumulating snow from 3 to 6 inches is possible
and this will make for difficult travel

* other impacts... blowing and drifting snow with low
visibilities possible Wednesday

Precautionary/preparedness actions...

A Winter Weather Advisory for snow means that periods of snow
will cause primarily travel difficulties. Be prepared for snow
covered roads and limited visibilities... and use caution while
driving.